Time;durP1;ratioP1;P1;durP2;ratioP2;P2;SDS_P1;SDS_P2;PMS_P1;PMS_P2;Temp;Humidity;BMP_temperature;BMP_pressure;BME280_temperature;BME280_humidity;BME280_pressure;Samples;Min_cycle;Max_cycle;Signal;HPM_P1;HPM_P2
2022/03/13 00:00:21;;;;;;;43.20;28.85;;;5.60;62.90;;;;;;4979908;28;20438;-89
2022/03/13 00:02:47;;;;;;;40.13;25.58;;;5.60;63.20;;;;;;4997455;28;20038;-88
2022/03/13 00:05:16;;;;;;;42.70;26.95;;;5.70;63.00;;;;;;4997373;28;20034;-89
2022/03/13 00:07:51;;;;;;;43.97;26.90;;;5.70;62.80;;;;;;4979253;28;20089;-88
2022/03/13 00:10:19;;;;;;;49.03;28.67;;;5.70;63.30;;;;;;4979205;28;20402;-88
2022/03/13 00:12:47;;;;;;;43.63;30.23;;;5.60;63.00;;;;;;4978100;28;20042;-88
2022/03/13 00:15:14;;;;;;;53.65;29.63;;;5.50;63.20;;;;;;4980239;28;20035;-90
2022/03/13 00:17:41;;;;;;;44.53;28.60;;;5.50;63.10;;;;;;4996947;28;20037;-90
2022/03/13 00:20:08;;;;;;;44.28;29.30;;;5.40;62.80;;;;;;4979696;28;20034;-92
2022/03/13 00:22:35;;;;;;;49.13;28.98;;;5.40;62.80;;;;;;4996830;28;20041;-92
2022/03/13 00:25:03;;;;;;;39.78;27.45;;;5.40;62.80;;;;;;4997303;28;20027;-92
2022/03/13 00:27:34;;;;;;;46.95;30.50;;;5.40;62.70;;;;;;4997682;28;20027;-92
2022/03/13 00:30:00;;;;;;;38.15;27.20;;;5.40;62.50;;;;;;4980275;28;20031;-91
2022/03/13 00:32:26;;;;;;;44.08;28.75;;;5.30;62.50;;;;;;4979726;28;20129;-92
2022/03/13 00:34:52;;;;;;;39.70;26.98;;;5.30;62.80;;;;;;4997669;28;20062;-93
2022/03/13 00:37:17;;;;;;;43.30;27.25;;;5.30;62.40;;;;;;4979893;28;20351;-90
2022/03/13 00:39:44;;;;;;;45.53;26.88;;;5.30;62.20;;;;;;4980044;28;20066;-90
2022/03/13 00:42:12;;;;;;;43.75;26.15;;;5.40;62.60;;;;;;4997357;28;20027;-89
2022/03/13 00:44:38;;;;;;;41.72;26.02;;;5.40;62.00;;;;;;4996507;28;20034;-88
2022/03/13 00:47:05;;;;;;;36.15;23.60;;;5.50;62.40;;;;;;4996452;28;20501;-88
2022/03/13 00:49:32;;;;;;;38.15;24.83;;;5.40;61.70;;;;;;4991105;28;20033;-91
2022/03/13 00:52:02;;;;;;;38.05;25.35;;;5.40;62.10;;;;;;5001008;28;20042;-92
2022/03/13 00:54:28;;;;;;;39.65;25.13;;;5.40;63.00;;;;;;4996633;28;20117;-92
2022/03/13 00:56:54;;;;;;;40.00;25.33;;;5.40;63.40;;;;;;4996947;28;20066;-91
2022/03/13 00:59:23;;;;;;;41.22;26.63;;;5.40;63.00;;;;;;4996412;28;20415;-91
2022/03/13 01:01:49;;;;;;;36.08;24.45;;;5.40;63.40;;;;;;4997513;28;20034;-95
2022/03/13 01:04:15;;;;;;;38.45;25.38;;;5.30;62.80;;;;;;4980301;28;20027;-92
2022/03/13 01:06:43;;;;;;;38.17;25.20;;;5.30;62.80;;;;;;4997038;28;20023;-94
2022/03/13 01:09:09;;;;;;;40.72;25.23;;;5.30;63.20;;;;;;4997110;28;20057;-92
2022/03/13 01:11:34;;;;;;;41.53;24.25;;;5.30;62.50;;;;;;5011164;28;20490;-91
2022/03/13 01:14:00;;;;;;;39.58;25.52;;;5.20;62.30;;;;;;4997168;28;20030;-90
2022/03/13 01:16:29;;;;;;;40.33;25.55;;;5.20;62.70;;;;;;4982777;28;20034;-90
2022/03/13 01:18:58;;;;;;;37.42;25.70;;;5.10;62.20;;;;;;4996435;28;20097;-91
2022/03/13 01:21:25;;;;;;;46.78;26.75;;;5.10;62.50;;;;;;4977963;28;20050;-90
2022/03/13 01:23:59;;;;;;;42.00;27.00;;;5.10;62.90;;;;;;5011249;28;20133;-93
2022/03/13 01:26:25;;;;;;;43.40;27.02;;;5.00;62.70;;;;;;5010629;28;20042;-92
2022/03/13 01:28:56;;;;;;;43.72;27.38;;;5.00;62.60;;;;;;4995691;28;20502;-92
2022/03/13 01:31:32;;;;;;;42.65;26.80;;;5.00;62.80;;;;;;4991255;28;20089;-91
2022/03/13 01:33:59;;;;;;;40.45;25.92;;;5.00;63.00;;;;;;4996686;28;20038;-91
2022/03/13 01:36:25;;;;;;;43.08;27.63;;;5.00;62.80;;;;;;5015490;28;20033;-91
2022/03/13 01:38:56;;;;;;;45.10;27.67;;;5.00;62.50;;;;;;4997707;28;20048;-91
2022/03/13 01:41:28;;;;;;;43.50;26.83;;;4.90;62.80;;;;;;4985871;28;20164;-91
2022/03/13 01:43:55;;;;;;;41.70;25.15;;;4.90;63.30;;;;;;4978900;28;20030;-92
2022/03/13 01:46:20;;;;;;;38.33;23.92;;;4.90;62.20;;;;;;4978480;28;20041;-90
2022/03/13 01:48:59;;;;;;;40.50;26.40;;;5.00;62.10;;;;;;4980140;28;20038;-92
2022/03/13 01:51:26;;;;;;;42.83;25.92;;;5.00;61.10;;;;;;5015203;28;20034;-87
2022/03/13 01:53:56;;;;;;;39.40;23.90;;;5.00;60.80;;;;;;4994203;28;20491;-89
2022/03/13 01:56:23;;;;;;;37.05;22.90;;;5.00;60.40;;;;;;5009967;28;20046;-90
2022/03/13 01:58:51;;;;;;;40.53;23.60;;;5.20;59.90;;;;;;4996994;28;20088;-87
2022/03/13 02:01:18;;;;;;;31.25;19.67;;;5.30;59.60;;;;;;4996463;28;20034;-87
2022/03/13 02:03:45;;;;;;;33.55;21.98;;;5.30;58.20;;;;;;4996646;28;20033;-87
2022/03/13 02:06:10;;;;;;;37.63;24.27;;;5.40;58.20;;;;;;4997104;28;20042;-88
2022/03/13 02:08:37;;;;;;;40.50;24.25;;;5.30;58.30;;;;;;5014008;28;20022;-88
2022/03/13 02:11:03;;;;;;;30.80;21.08;;;5.30;58.40;;;;;;4994931;28;20038;-87
2022/03/13 02:13:30;;;;;;;37.50;23.95;;;5.40;58.10;;;;;;4994858;28;20034;-90
2022/03/13 02:15:55;;;;;;;37.17;23.23;;;5.50;57.90;;;;;;4997719;28;20409;-91
2022/03/13 02:18:21;;;;;;;35.45;23.27;;;5.40;57.70;;;;;;5015259;28;20030;-88
2022/03/13 02:20:47;;;;;;;34.67;23.13;;;5.50;58.50;;;;;;4978955;28;20034;-91
2022/03/13 02:23:22;;;;;;;37.55;23.52;;;5.50;58.10;;;;;;4995305;28;20085;-91
2022/03/13 02:25:53;;;;;;;36.00;23.60;;;5.40;57.60;;;;;;4995172;28;20038;-89
2022/03/13 02:28:30;;;;;;;36.25;22.63;;;5.30;58.50;;;;;;4994871;28;20027;-90
2022/03/13 02:31:02;;;;;;;36.67;23.35;;;5.20;58.30;;;;;;4994675;28;20049;-90
2022/03/13 02:33:28;;;;;;;35.30;21.55;;;5.20;59.30;;;;;;5004817;28;20034;-89
2022/03/13 02:36:03;;;;;;;31.83;20.90;;;5.30;59.20;;;;;;5010185;28;20030;-89
2022/03/13 02:38:30;;;;;;;36.38;24.05;;;5.40;58.40;;;;;;5004571;28;20034;-89
2022/03/13 02:40:56;;;;;;;32.35;22.15;;;5.30;58.90;;;;;;5008570;28;20031;-88
2022/03/13 02:43:23;;;;;;;37.83;21.35;;;5.20;59.80;;;;;;5002893;28;20034;-89
2022/03/13 02:45:52;;;;;;;32.25;21.95;;;5.20;59.00;;;;;;5006094;28;20080;-90
2022/03/13 02:48:18;;;;;;;39.80;21.88;;;5.20;59.20;;;;;;4994384;28;20030;-90
2022/03/13 02:50:45;;;;;;;32.33;21.55;;;5.20;59.30;;;;;;4994867;28;20034;-89
2022/03/13 02:53:11;;;;;;;32.97;20.67;;;5.30;58.90;;;;;;4994585;28;20042;-90
2022/03/13 02:55:36;;;;;;;31.15;20.98;;;5.20;59.20;;;;;;4976927;28;20085;-90
2022/03/13 02:58:03;;;;;;;35.88;23.45;;;5.30;59.40;;;;;;4999830;28;20034;-90
2022/03/13 03:00:47;;;;;;;39.67;23.88;;;5.20;59.80;;;;;;5000914;28;20038;-90
2022/03/13 03:03:15;;;;;;;34.28;23.67;;;5.00;60.40;;;;;;5005366;28;20075;-90
2022/03/13 03:05:40;;;;;;;29.58;20.60;;;4.90;60.60;;;;;;5014218;28;20556;-90
2022/03/13 03:08:07;;;;;;;33.75;22.92;;;5.00;61.00;;;;;;5015990;28;20034;-92
2022/03/13 03:10:34;;;;;;;34.95;24.88;;;5.00;61.40;;;;;;5004633;28;20057;-90
2022/03/13 03:13:00;;;;;;;34.22;23.20;;;4.90;60.90;;;;;;4998632;28;20088;-91
2022/03/13 03:15:26;;;;;;;41.70;24.35;;;4.80;61.50;;;;;;4998499;28;20433;-88
2022/03/13 03:17:52;;;;;;;39.65;23.50;;;4.80;61.40;;;;;;4998298;28;20064;-91
2022/03/13 03:20:19;;;;;;;37.13;24.00;;;4.70;61.50;;;;;;4981226;28;20030;-87
2022/03/13 03:22:46;;;;;;;32.78;22.63;;;4.80;61.50;;;;;;4980739;28;20081;-88
2022/03/13 03:25:11;;;;;;;31.65;21.83;;;4.80;61.40;;;;;;4998292;28;20157;-88
2022/03/13 03:27:40;;;;;;;33.90;22.88;;;4.80;61.70;;;;;;4981016;28;20038;-89
2022/03/13 03:30:06;;;;;;;36.92;24.05;;;4.90;62.00;;;;;;4998016;28;20038;-89
2022/03/13 03:32:32;;;;;;;39.10;25.35;;;4.90;61.60;;;;;;4998536;28;20034;-89
2022/03/13 03:34:58;;;;;;;36.03;23.20;;;4.70;62.30;;;;;;4997992;28;20515;-88
2022/03/13 03:37:23;;;;;;;35.35;23.17;;;4.70;61.90;;;;;;4998560;28;20034;-90
2022/03/13 03:39:49;;;;;;;34.80;23.52;;;4.70;61.50;;;;;;5017289;28;20046;-91
2022/03/13 03:42:15;;;;;;;36.38;22.92;;;4.70;62.30;;;;;;5000065;28;20036;-91
2022/03/13 03:44:40;;;;;;;44.75;23.63;;;4.90;61.70;;;;;;4999886;28;20034;-93
2022/03/13 03:47:06;;;;;;;33.67;21.20;;;4.90;60.80;;;;;;5017287;28;20040;-88
2022/03/13 03:49:34;;;;;;;34.00;22.30;;;4.90;60.20;;;;;;5008236;28;20065;-88
2022/03/13 03:51:59;;;;;;;32.85;21.23;;;5.00;59.80;;;;;;4998252;28;20034;-89
2022/03/13 03:54:25;;;;;;;33.70;22.80;;;5.00;59.40;;;;;;4997915;28;20340;-88
2022/03/13 03:56:51;;;;;;;29.55;20.30;;;4.80;59.70;;;;;;4982938;28;20092;-89
2022/03/13 03:59:19;;;;;;;32.03;22.27;;;4.70;60.00;;;;;;5016256;28;20176;-89
2022/03/13 04:01:45;;;;;;;32.85;22.02;;;4.70;59.40;;;;;;4998506;28;20031;-87
2022/03/13 04:04:11;;;;;;;34.65;21.85;;;4.60;59.30;;;;;;4988743;28;20371;-87
2022/03/13 04:06:38;;;;;;;29.63;20.73;;;4.50;59.20;;;;;;5012549;28;20489;-87
2022/03/13 04:09:06;;;;;;;31.75;20.58;;;4.70;58.70;;;;;;4989273;28;20041;-89
2022/03/13 04:11:32;;;;;;;34.28;21.60;;;4.70;58.50;;;;;;4997760;28;20105;-87
2022/03/13 04:13:58;;;;;;;34.40;20.33;;;4.60;58.40;;;;;;4979681;28;20070;-88
2022/03/13 04:16:24;;;;;;;34.75;22.48;;;4.70;58.10;;;;;;4979686;28;20093;-89
2022/03/13 04:18:51;;;;;;;33.45;22.27;;;4.80;58.10;;;;;;4996481;28;20034;-90
2022/03/13 04:21:17;;;;;;;28.95;20.50;;;4.80;58.50;;;;;;4979220;28;20050;-89
2022/03/13 04:23:43;;;;;;;35.85;21.85;;;4.80;58.40;;;;;;4997172;28;20117;-90
2022/03/13 04:26:09;;;;;;;34.55;21.63;;;4.90;58.20;;;;;;4979660;28;20469;-90
2022/03/13 04:28:35;;;;;;;31.58;21.13;;;4.80;58.90;;;;;;4997258;28;20073;-90
2022/03/13 04:31:01;;;;;;;37.50;24.05;;;4.80;58.70;;;;;;4979556;28;20077;-92
2022/03/13 04:33:33;;;;;;;34.72;22.33;;;4.80;58.90;;;;;;4997445;28;20074;-93
2022/03/13 04:36:00;;;;;;;35.92;22.77;;;4.90;59.00;;;;;;4997677;28;20031;-93
2022/03/13 04:38:27;;;;;;;33.97;20.77;;;4.70;58.80;;;;;;4995798;28;20034;-91
2022/03/13 04:40:54;;;;;;;37.35;23.77;;;4.60;58.60;;;;;;4997465;28;20502;-91
2022/03/13 04:43:21;;;;;;;36.72;23.27;;;4.50;58.40;;;;;;4997038;28;20034;-92
2022/03/13 04:45:48;;;;;;;36.13;22.33;;;4.50;58.60;;;;;;4997157;28;20098;-95
2022/03/13 04:48:15;;;;;;;39.53;23.67;;;4.40;58.20;;;;;;4980027;28;20038;-94
2022/03/13 04:50:41;;;;;;;36.20;21.80;;;4.30;58.10;;;;;;4980087;28;20398;-95
2022/03/13 04:53:07;;;;;;;33.50;22.13;;;4.30;58.10;;;;;;5008250;28;20059;-93
2022/03/13 04:55:32;;;;;;;35.78;21.98;;;4.30;57.60;;;;;;4998928;28;20646;-93
2022/03/13 04:57:58;;;;;;;42.88;22.27;;;4.30;57.70;;;;;;5016523;28;20375;-93
2022/03/13 05:00:27;;;;;;;35.42;21.48;;;4.20;56.90;;;;;;4998480;28;20401;-91
2022/03/13 05:02:54;;;;;;;36.03;22.30;;;4.20;55.60;;;;;;5016088;28;20061;-92
2022/03/13 05:05:21;;;;;;;34.38;21.30;;;4.10;55.50;;;;;;4998387;28;20033;-92
2022/03/13 05:07:46;;;;;;;40.33;20.88;;;4.00;55.90;;;;;;4998305;28;20042;-91
2022/03/13 05:10:12;;;;;;;35.63;21.83;;;4.10;56.50;;;;;;5015857;28;20464;-93
2022/03/13 05:12:38;;;;;;;33.35;21.02;;;4.10;54.30;;;;;;5016024;28;20056;-93
2022/03/13 05:15:04;;;;;;;34.67;20.52;;;4.20;53.50;;;;;;5001274;28;20546;-92
2022/03/13 05:17:30;;;;;;;39.55;21.55;;;4.20;53.70;;;;;;4996209;28;20039;-88
2022/03/13 05:19:55;;;;;;;32.78;20.52;;;4.30;53.90;;;;;;4995970;28;20042;-89
2022/03/13 05:22:21;;;;;;;39.22;22.52;;;4.10;51.50;;;;;;4996489;28;20495;-90
2022/03/13 05:24:47;;;;;;;34.75;21.35;;;3.80;52.10;;;;;;4995979;28;20108;-91
2022/03/13 05:27:13;;;;;;;34.67;20.90;;;3.60;52.30;;;;;;4996128;28;20519;-93
2022/03/13 05:29:39;;;;;;;33.70;21.30;;;3.60;52.70;;;;;;4996931;28;20035;-92
2022/03/13 05:32:05;;;;;;;38.42;20.98;;;3.60;53.10;;;;;;4978138;28;20038;-92
2022/03/13 05:34:31;;;;;;;40.10;21.45;;;3.60;52.70;;;;;;4996263;28;20034;-93
2022/03/13 05:36:56;;;;;;;29.15;19.08;;;3.60;52.60;;;;;;4995867;28;20042;-91
2022/03/13 05:39:22;;;;;;;32.15;20.13;;;3.60;53.40;;;;;;4997546;28;20541;-91
2022/03/13 05:41:48;;;;;;;31.27;19.00;;;3.70;52.90;;;;;;4988479;28;20105;-91
2022/03/13 05:44:15;;;;;;;32.65;21.48;;;3.80;52.00;;;;;;5021809;28;20038;-92
2022/03/13 05:46:40;;;;;;;36.50;21.92;;;3.90;52.90;;;;;;5010832;28;20039;-94
2022/03/13 05:49:08;;;;;;;30.77;20.33;;;3.80;52.70;;;;;;4979590;28;20058;-94
2022/03/13 05:51:37;;;;;;;34.65;20.50;;;3.70;53.10;;;;;;4995853;28;20061;-90
2022/03/13 05:54:06;;;;;;;30.83;18.60;;;3.70;54.20;;;;;;4995350;28;20225;-90
2022/03/13 05:56:32;;;;;;;34.70;22.35;;;3.90;54.10;;;;;;4982051;28;20035;-92
2022/03/13 05:58:58;;;;;;;30.88;19.75;;;3.90;53.20;;;;;;4976887;28;20038;-90
2022/03/13 06:01:24;;;;;;;35.03;22.00;;;4.00;52.50;;;;;;4977408;28;20044;-90
2022/03/13 06:03:49;;;;;;;33.15;19.85;;;3.90;52.60;;;;;;4995508;28;20026;-90
2022/03/13 06:06:15;;;;;;;34.22;22.10;;;3.90;52.10;;;;;;4995605;28;20363;-90
2022/03/13 06:08:41;;;;;;;32.90;21.95;;;4.00;52.10;;;;;;4994969;28;20064;-92
2022/03/13 06:11:08;;;;;;;33.17;21.20;;;4.00;52.20;;;;;;5015417;28;20058;-91
2022/03/13 06:13:34;;;;;;;31.60;18.38;;;4.00;52.30;;;;;;4999114;28;20049;-91
2022/03/13 06:16:00;;;;;;;29.38;19.40;;;4.10;52.30;;;;;;4994996;28;20031;-90
2022/03/13 06:18:30;;;;;;;35.95;20.65;;;4.20;51.50;;;;;;4992599;28;20459;-90
2022/03/13 06:20:56;;;;;;;32.88;19.95;;;4.20;51.60;;;;;;4977669;28;20081;-90
2022/03/13 06:23:23;;;;;;;32.15;20.10;;;4.00;51.70;;;;;;5001444;28;20113;-90
2022/03/13 06:25:48;;;;;;;31.38;20.52;;;3.80;52.60;;;;;;5003381;28;20034;-92
2022/03/13 06:28:14;;;;;;;34.38;21.17;;;3.70;53.40;;;;;;5002491;28;20037;-89
2022/03/13 06:30:40;;;;;;;31.25;19.85;;;3.70;53.20;;;;;;4997416;28;20045;-91
2022/03/13 06:33:06;;;;;;;32.92;19.83;;;3.70;53.50;;;;;;4995528;28;20045;-91
2022/03/13 06:35:32;;;;;;;29.33;19.67;;;3.60;53.50;;;;;;4995915;28;20438;-91
2022/03/13 06:37:58;;;;;;;28.15;19.15;;;3.50;54.00;;;;;;4986657;28;20035;-92
2022/03/13 06:40:25;;;;;;;34.78;19.38;;;3.60;53.50;;;;;;4994538;28;20453;-91
2022/03/13 06:42:54;;;;;;;30.90;20.02;;;3.60;54.00;;;;;;4976607;28;20034;-90
2022/03/13 06:45:20;;;;;;;38.35;19.10;;;3.60;54.40;;;;;;4977642;28;20080;-92
2022/03/13 06:47:49;;;;;;;33.58;20.95;;;3.70;54.00;;;;;;4995574;28;20038;-95
2022/03/13 06:50:19;;;;;;;28.45;19.88;;;3.90;54.40;;;;;;4978344;28;20093;-96
2022/03/13 06:52:47;;;;;;;30.15;18.92;;;3.90;53.80;;;;;;5010031;28;20042;-94
2022/03/13 06:55:14;;;;;;;28.65;19.48;;;3.90;53.50;;;;;;4994736;28;20046;-89
2022/03/13 06:57:44;;;;;;;34.25;20.65;;;4.00;53.60;;;;;;4995018;28;20038;-91
2022/03/13 07:00:14;;;;;;;31.15;18.52;;;4.00;53.70;;;;;;4973285;28;20042;-89
2022/03/13 07:02:39;;;;;;;;;;;4.10;54.30;;;;;;4977000;28;20030;-93
2022/03/13 07:05:05;;;;;;;25.80;18.45;;;4.10;53.60;;;;;;4978138;28;19905;-93
2022/03/13 07:07:31;;;;;;;31.42;18.85;;;4.00;54.30;;;;;;4977942;28;20041;-94
2022/03/13 07:09:57;;;;;;;36.63;19.33;;;4.00;54.60;;;;;;4995085;28;20030;-93
2022/03/13 07:12:24;;;;;;;31.30;17.90;;;4.20;54.50;;;;;;4992926;28;20038;-84
2022/03/13 07:14:51;;;;;;;26.45;16.85;;;4.20;54.80;;;;;;4993052;28;20097;-85
2022/03/13 07:17:18;;;;;;;31.55;18.40;;;4.50;53.80;;;;;;4996451;28;20034;-85
2022/03/13 07:19:45;;;;;;;33.58;19.25;;;4.70;53.10;;;;;;5001690;28;20069;-86
2022/03/13 07:22:13;;;;;;;28.38;17.10;;;4.90;53.10;;;;;;5002200;28;20042;-85
2022/03/13 07:24:42;;;;;;;25.30;17.73;;;5.00;52.00;;;;;;4994691;28;20058;-85
2022/03/13 07:27:08;;;;;;;27.50;16.92;;;5.10;52.00;;;;;;4990944;28;20077;-83
2022/03/13 07:29:34;;;;;;;28.80;19.05;;;5.30;51.50;;;;;;4993346;28;20050;-86
2022/03/13 07:32:00;;;;;;;30.67;18.35;;;5.30;51.50;;;;;;4974908;28;20414;-87
2022/03/13 07:34:27;;;;;;;28.20;17.08;;;5.30;51.10;;;;;;4973817;28;20047;-87
2022/03/13 07:36:54;;;;;;;34.50;20.23;;;5.40;51.20;;;;;;4990367;28;20469;-87
2022/03/13 07:39:21;;;;;;;26.45;18.83;;;5.30;51.90;;;;;;4988321;28;20046;-87
2022/03/13 07:41:50;;;;;;;30.08;18.90;;;5.30;53.20;;;;;;4991908;28;20066;-86
2022/03/13 07:44:16;;;;;;;27.43;19.30;;;5.30;52.70;;;;;;4991208;28;20034;-86
2022/03/13 07:46:42;;;;;;;24.55;18.20;;;5.40;52.40;;;;;;5002683;28;20057;-86
2022/03/13 07:49:08;;;;;;;28.20;17.42;;;5.50;52.70;;;;;;4995486;28;20034;-89
2022/03/13 07:51:36;;;;;;;28.48;19.55;;;5.70;52.60;;;;;;4974303;28;20057;-90
2022/03/13 07:54:04;;;;;;;28.02;19.02;;;5.80;52.50;;;;;;4995268;28;20042;-89
2022/03/13 07:56:33;;;;;;;28.33;18.30;;;5.90;51.20;;;;;;5006192;28;20038;-89
2022/03/13 07:58:58;;;;;;;30.80;19.92;;;6.00;51.60;;;;;;4991786;28;20092;-86
2022/03/13 08:01:24;;;;;;;28.63;18.98;;;6.10;50.70;;;;;;5011655;28;20034;-92
2022/03/13 08:03:51;;;;;;;25.33;17.00;;;6.10;50.50;;;;;;5023858;28;20034;-94
2022/03/13 08:06:16;;;;;;;28.73;17.80;;;6.20;49.50;;;;;;5019227;28;20054;-89
2022/03/13 08:08:42;;;;;;;24.73;18.00;;;6.30;50.90;;;;;;5011843;28;20545;-92
2022/03/13 08:11:08;;;;;;;24.90;17.95;;;6.40;49.60;;;;;;5002883;28;20098;-93
2022/03/13 08:13:33;;;;;;;25.77;17.45;;;6.50;49.60;;;;;;4989863;28;20053;-91
2022/03/13 08:15:59;;;;;;;26.67;17.98;;;6.70;50.60;;;;;;4986999;28;20030;-85
2022/03/13 08:18:26;;;;;;;23.08;16.50;;;6.80;49.70;;;;;;5016398;28;20058;-85
2022/03/13 08:20:52;;;;;;;31.20;16.05;;;7.00;49.60;;;;;;4997792;28;20034;-83
2022/03/13 08:23:17;;;;;;;24.80;16.13;;;7.10;49.40;;;;;;4978317;28;20050;-90
2022/03/13 08:25:43;;;;;;;23.45;17.25;;;7.30;48.90;;;;;;4981379;28;20414;-84
2022/03/13 08:28:09;;;;;;;20.35;15.02;;;7.40;48.10;;;;;;4970127;28;20089;-85
2022/03/13 08:30:35;;;;;;;17.63;13.23;;;7.50;47.90;;;;;;4976853;28;20037;-85
2022/03/13 08:33:02;;;;;;;20.02;10.73;;;7.60;49.00;;;;;;4976502;28;20118;-89
2022/03/13 08:35:29;;;;;;;19.55;13.57;;;7.90;53.60;;;;;;4975015;28;20113;-88
2022/03/13 08:37:55;;;;;;;20.35;15.32;;;8.10;53.10;;;;;;4989099;28;20459;-90
2022/03/13 08:40:25;;;;;;;21.77;15.50;;;8.30;48.10;;;;;;4964600;28;20035;-91
2022/03/13 08:42:52;;;;;;;22.27;14.52;;;8.40;47.50;;;;;;4976495;28;20030;-91
2022/03/13 08:45:21;;;;;;;23.65;13.55;;;8.60;49.40;;;;;;4984168;28;20034;-90
2022/03/13 08:47:47;;;;;;;24.52;12.05;;;8.70;48.10;;;;;;4991147;28;20490;-89
2022/03/13 08:50:14;;;;;;;21.60;15.20;;;9.00;54.00;;;;;;4977811;28;20111;-88
2022/03/13 08:52:40;;;;;;;17.15;12.38;;;9.10;45.40;;;;;;4960679;28;20047;-82
2022/03/13 08:55:08;;;;;;;21.13;14.00;;;9.20;49.30;;;;;;4971068;28;20109;-87
2022/03/13 08:57:34;;;;;;;17.33;12.70;;;9.40;47.30;;;;;;4973596;28;20542;-87
2022/03/13 09:00:00;;;;;;;24.10;14.50;;;9.60;49.00;;;;;;4956895;28;20121;-88
2022/03/13 09:02:26;;;;;;;20.17;15.32;;;9.90;45.20;;;;;;4955446;28;20175;-87
2022/03/13 09:05:10;;;;;;;19.08;14.55;;;10.00;44.60;;;;;;4953616;28;20050;-86
2022/03/13 09:07:39;;;;;;;16.83;12.95;;;10.10;45.00;;;;;;4974775;28;20039;-88
2022/03/13 09:10:07;;;;;;;17.92;13.90;;;10.10;44.50;;;;;;4989897;28;20039;-87
2022/03/13 09:12:34;;;;;;;14.82;11.13;;;10.20;44.90;;;;;;4991525;28;20127;-87
2022/03/13 09:15:01;;;;;;;13.40;11.05;;;10.30;45.40;;;;;;4984236;28;20063;-87
2022/03/13 09:17:27;;;;;;;17.42;11.50;;;10.50;44.90;;;;;;4977502;28;20043;-87
2022/03/13 09:19:53;;;;;;;17.48;11.55;;;10.60;43.30;;;;;;4961576;28;20150;-87
2022/03/13 09:22:20;;;;;;;11.35;9.55;;;10.60;41.90;;;;;;4963813;28;20057;-87
2022/03/13 09:24:46;;;;;;;12.38;8.60;;;10.70;43.10;;;;;;4993778;28;20030;-88
2022/03/13 09:27:12;;;;;;;9.45;7.82;;;10.80;43.00;;;;;;4976853;28;20428;-87
2022/03/13 09:29:39;;;;;;;9.38;7.38;;;11.00;42.40;;;;;;4968735;28;20042;-88
2022/03/13 09:32:05;;;;;;;10.13;8.10;;;11.30;40.70;;;;;;4983491;28;20042;-88
2022/03/13 09:34:31;;;;;;;10.18;8.18;;;11.50;39.50;;;;;;4995206;28;20034;-87
2022/03/13 09:36:59;;;;;;;13.13;9.68;;;11.80;39.30;;;;;;4994544;28;20038;-86
2022/03/13 09:39:25;;;;;;;11.73;8.10;;;12.00;39.00;;;;;;4969223;28;20097;-87
2022/03/13 09:41:52;;;;;;;11.18;8.45;;;12.20;39.00;;;;;;4975760;28;20030;-87
2022/03/13 09:44:19;;;;;;;11.43;8.23;;;12.30;39.30;;;;;;4988750;28;20043;-87
2022/03/13 09:46:45;;;;;;;13.57;9.13;;;12.50;37.80;;;;;;4975538;28;20398;-87
2022/03/13 09:49:11;;;;;;;12.48;8.55;;;12.60;37.60;;;;;;4991298;28;20117;-87
2022/03/13 09:51:36;;;;;;;11.45;8.30;;;12.50;36.60;;;;;;4977670;28;20121;-87
2022/03/13 09:54:02;;;;;;;10.10;7.40;;;12.60;37.70;;;;;;4974721;28;20122;-87
2022/03/13 09:56:29;;;;;;;9.65;7.15;;;12.80;38.10;;;;;;4993512;28;20038;-87
2022/03/13 09:58:54;;;;;;;9.88;7.80;;;13.00;38.00;;;;;;4985841;28;20050;-87
2022/03/13 10:01:21;;;;;;;10.30;7.85;;;13.20;36.50;;;;;;4994127;28;20043;-85
2022/03/13 10:03:46;;;;;;;9.57;7.00;;;13.30;35.40;;;;;;4994516;28;20122;-85
2022/03/13 10:06:13;;;;;;;11.45;7.90;;;13.40;37.80;;;;;;4990793;28;20476;-84
2022/03/13 10:08:39;;;;;;;12.68;8.25;;;13.50;40.20;;;;;;4986068;28;20096;-85
2022/03/13 10:11:07;;;;;;;12.77;8.73;;;13.60;42.10;;;;;;4988750;28;20038;-85
2022/03/13 10:13:39;;;;;;;11.18;7.72;;;13.80;37.90;;;;;;4988998;28;20092;-87
2022/03/13 10:16:22;;;;;;;11.15;8.65;;;14.00;37.00;;;;;;4994903;28;20187;-83
2022/03/13 10:18:48;;;;;;;10.38;8.38;;;14.00;36.10;;;;;;4989002;28;20593;-84
2022/03/13 10:21:19;;;;;;;10.75;7.32;;;14.30;40.10;;;;;;4980513;28;20138;-84
2022/03/13 10:23:48;;;;;;;11.27;7.93;;;14.40;39.40;;;;;;4972757;28;20035;-83
2022/03/13 10:26:16;;;;;;;10.77;7.85;;;14.40;34.80;;;;;;4968635;28;20166;-83
2022/03/13 10:28:42;;;;;;;8.60;7.20;;;14.30;35.70;;;;;;4970819;28;20026;-83
2022/03/13 10:31:18;;;;;;;10.23;7.28;;;14.40;36.90;;;;;;4973415;28;20494;-83
2022/03/13 10:33:47;;;;;;;12.15;8.50;;;14.60;36.50;;;;;;4973233;28;20034;-83
2022/03/13 10:36:19;;;;;;;12.02;8.40;;;14.70;34.80;;;;;;4972821;28;20085;-83
2022/03/13 10:38:47;;;;;;;9.98;7.53;;;14.70;36.60;;;;;;4973094;28;20054;-82
2022/03/13 10:41:13;;;;;;;11.60;7.63;;;14.70;36.20;;;;;;4973036;28;20038;-83
2022/03/13 10:43:51;;;;;;;10.68;6.80;;;14.70;36.40;;;;;;4978089;28;20125;-82
2022/03/13 10:46:29;;;;;;;9.43;7.30;;;14.60;36.20;;;;;;4971694;28;20034;-82
2022/03/13 10:48:55;;;;;;;10.20;7.20;;;14.50;36.70;;;;;;4972751;28;20054;-84
2022/03/13 10:51:45;;;;;;;11.18;6.22;;;14.30;37.40;;;;;;4972061;28;20035;-83
2022/03/13 10:54:27;;;;;;;9.00;6.43;;;14.30;37.10;;;;;;4968750;28;20122;-86
2022/03/13 10:57:09;;;;;;;6.30;5.25;;;14.60;38.30;;;;;;4967956;28;20115;-87
2022/03/13 10:59:36;;;;;;;8.32;6.28;;;14.90;37.40;;;;;;4970486;28;20035;-84
2022/03/13 11:02:16;;;;;;;11.00;6.15;;;15.30;37.20;;;;;;4971823;28;20093;-88
2022/03/13 11:04:46;;;;;;;7.68;5.78;;;15.50;35.20;;;;;;4963243;28;20093;-84
2022/03/13 11:07:12;;;;;;;9.07;6.40;;;15.70;36.00;;;;;;4967390;28;20035;-82
2022/03/13 11:09:38;;;;;;;8.05;6.47;;;16.10;39.40;;;;;;4963006;28;20047;-83
2022/03/13 11:12:17;;;;;;;10.73;7.18;;;16.20;35.00;;;;;;4972433;28;21652;-82
2022/03/13 11:14:53;;;;;;;12.25;6.60;;;15.80;34.00;;;;;;4971388;28;20130;-84
2022/03/13 11:17:25;;;;;;;7.43;5.90;;;15.60;34.90;;;;;;4974139;28;20035;-83
2022/03/13 11:19:53;;;;;;;8.40;6.47;;;15.40;35.10;;;;;;4968951;28;20097;-82
2022/03/13 11:22:20;;;;;;;7.88;6.25;;;15.50;35.40;;;;;;4987858;28;20475;-82
2022/03/13 11:24:56;;;;;;;7.85;6.30;;;15.50;35.50;;;;;;4992137;28;20033;-83
2022/03/13 11:27:27;;;;;;;10.07;7.18;;;15.70;36.40;;;;;;4987125;28;20491;-83
2022/03/13 11:29:55;;;;;;;12.90;8.10;;;16.00;35.40;;;;;;4992789;28;20047;-86
2022/03/13 11:32:37;;;;;;;10.18;7.25;;;16.30;35.10;;;;;;4996503;28;20034;-86
2022/03/13 11:35:18;;;;;;;10.13;7.22;;;16.60;36.20;;;;;;4989006;28;20034;-85
2022/03/13 11:37:54;;;;;;;8.30;7.40;;;17.00;35.30;;;;;;4990491;28;20030;-84
2022/03/13 11:40:30;;;;;;;9.05;7.32;;;17.10;34.10;;;;;;4975747;28;20042;-87
2022/03/13 11:43:14;;;;;;;14.45;7.90;;;17.20;35.00;;;;;;4991243;28;20045;-85
2022/03/13 11:46:01;;;;;;;8.88;6.47;;;17.50;34.60;;;;;;4988424;28;20064;-87
2022/03/13 11:48:32;;;;;;;6.95;5.57;;;18.00;33.20;;;;;;4994827;28;20031;-85
2022/03/13 11:51:02;;;;;;;9.13;5.45;;;18.30;32.90;;;;;;4972881;28;20045;-85
2022/03/13 11:53:49;;;;;;;7.32;5.75;;;18.30;33.00;;;;;;4994498;28;20061;-83
2022/03/13 11:56:26;;;;;;;7.28;5.57;;;18.30;31.50;;;;;;4995647;28;20034;-83
2022/03/13 11:58:54;;;;;;;6.53;5.40;;;18.40;31.00;;;;;;4978441;28;20557;-84
2022/03/13 12:01:30;;;;;;;7.22;5.55;;;18.70;30.90;;;;;;5007061;28;20034;-83
2022/03/13 12:04:04;;;;;;;5.22;4.72;;;18.70;30.10;;;;;;4985418;28;20097;-83
2022/03/13 12:06:45;;;;;;;6.43;5.50;;;18.70;30.70;;;;;;5006255;28;20030;-83
2022/03/13 12:09:14;;;;;;;6.93;5.70;;;18.90;30.20;;;;;;4997498;28;20042;-83
2022/03/13 12:11:46;;;;;;;9.48;4.85;;;19.00;29.70;;;;;;4985054;28;20559;-83
2022/03/13 12:14:14;;;;;;;8.27;4.68;;;19.00;29.90;;;;;;5002019;28;20041;-83
2022/03/13 12:16:46;;;;;;;9.95;4.97;;;19.50;31.50;;;;;;5001254;28;20041;-84
2022/03/13 12:19:16;;;;;;;7.38;5.22;;;20.10;29.00;;;;;;4994384;28;20148;-85
2022/03/13 12:22:13;;;;;;;6.72;5.35;;;20.50;29.00;;;;;;4979346;28;20053;-85
2022/03/13 12:24:46;;;;;;;8.23;5.32;;;20.30;29.10;;;;;;5006992;28;20121;-85
2022/03/13 12:27:12;;;;;;;5.70;5.00;;;20.00;30.00;;;;;;4998884;28;20034;-84
2022/03/13 12:29:38;;;;;;;8.75;5.35;;;19.80;28.50;;;;;;4996525;28;20042;-85
2022/03/13 12:32:10;;;;;;;5.93;5.10;;;19.40;29.40;;;;;;4989122;28;20042;-85
2022/03/13 12:34:40;;;;;;;7.05;4.97;;;19.40;30.00;;;;;;5001816;28;20034;-85
2022/03/13 12:37:09;;;;;;;6.47;5.65;;;19.40;30.60;;;;;;4974081;28;20418;-84
2022/03/13 12:39:51;;;;;;;6.87;3.93;;;19.50;30.10;;;;;;5002286;28;20088;-84
2022/03/13 12:42:24;;;;;;;4.75;3.88;;;19.20;30.20;;;;;;4993274;28;20042;-84